sensor_id;sensor_type;location;lat;lon;timestamp;P1;durP1;ratioP1;P2;durP2;ratioP2
17175;SDS011;8703;48.996;9.594;2023-09-18T00:02:26;4.03;;;3.30;;
17175;SDS011;8703;48.996;9.594;2023-09-18T00:04:56;6.78;;;4.03;;
17175;SDS011;8703;48.996;9.594;2023-09-18T00:07:24;5.70;;;3.70;;
17175;SDS011;8703;48.996;9.594;2023-09-18T00:09:51;5.70;;;3.53;;
17175;SDS011;8703;48.996;9.594;2023-09-18T00:12:18;4.68;;;3.38;;
17175;SDS011;8703;48.996;9.594;2023-09-18T00:14:47;5.55;;;3.88;;
17175;SDS011;8703;48.996;9.594;2023-09-18T00:17:16;5.00;;;3.45;;
17175;SDS011;8703;48.996;9.594;2023-09-18T00:19:44;6.22;;;3.65;;
17175;SDS011;8703;48.996;9.594;2023-09-18T00:22:11;3.55;;;2.95;;
17175;SDS011;8703;48.996;9.594;2023-09-18T00:24:39;5.85;;;3.58;;
17175;SDS011;8703;48.996;9.594;2023-09-18T00:27:06;6.97;;;3.83;;
17175;SDS011;8703;48.996;9.594;2023-09-18T00:29:33;6.38;;;3.70;;
17175;SDS011;8703;48.996;9.594;2023-09-18T00:32:01;5.07;;;3.50;;
17175;SDS011;8703;48.996;9.594;2023-09-18T00:34:30;4.95;;;3.60;;
17175;SDS011;8703;48.996;9.594;2023-09-18T00:36:57;5.93;;;3.88;;
17175;SDS011;8703;48.996;9.594;2023-09-18T00:39:25;5.68;;;3.72;;
17175;SDS011;8703;48.996;9.594;2023-09-18T00:41:52;5.45;;;3.38;;
17175;SDS011;8703;48.996;9.594;2023-09-18T00:44:20;3.90;;;3.20;;
17175;SDS011;8703;48.996;9.594;2023-09-18T00:46:47;4.13;;;3.13;;
17175;SDS011;8703;48.996;9.594;2023-09-18T00:49:15;4.03;;;3.60;;
17175;SDS011;8703;48.996;9.594;2023-09-18T00:51:47;5.15;;;3.60;;
17175;SDS011;8703;48.996;9.594;2023-09-18T00:54:15;3.70;;;3.22;;
17175;SDS011;8703;48.996;9.594;2023-09-18T00:56:44;5.05;;;3.38;;
17175;SDS011;8703;48.996;9.594;2023-09-18T00:59:12;6.50;;;3.67;;
17175;SDS011;8703;48.996;9.594;2023-09-18T01:01:39;5.05;;;3.50;;
17175;SDS011;8703;48.996;9.594;2023-09-18T01:04:08;4.53;;;3.45;;
17175;SDS011;8703;48.996;9.594;2023-09-18T01:06:35;5.32;;;3.80;;
17175;SDS011;8703;48.996;9.594;2023-09-18T01:09:04;5.35;;;3.42;;
17175;SDS011;8703;48.996;9.594;2023-09-18T01:11:40;4.63;;;3.80;;
17175;SDS011;8703;48.996;9.594;2023-09-18T01:14:14;5.45;;;3.50;;
17175;SDS011;8703;48.996;9.594;2023-09-18T01:16:47;5.63;;;3.90;;
17175;SDS011;8703;48.996;9.594;2023-09-18T01:19:34;5.13;;;3.60;;
17175;SDS011;8703;48.996;9.594;2023-09-18T01:22:03;5.15;;;3.40;;
17175;SDS011;8703;48.996;9.594;2023-09-18T01:24:32;4.60;;;3.67;;
17175;SDS011;8703;48.996;9.594;2023-09-18T01:27:00;5.40;;;3.50;;
17175;SDS011;8703;48.996;9.594;2023-09-18T01:29:27;4.45;;;3.17;;
17175;SDS011;8703;48.996;9.594;2023-09-18T01:31:55;4.95;;;3.42;;
17175;SDS011;8703;48.996;9.594;2023-09-18T01:34:24;7.50;;;3.72;;
17175;SDS011;8703;48.996;9.594;2023-09-18T01:36:53;4.90;;;3.15;;
17175;SDS011;8703;48.996;9.594;2023-09-18T01:39:22;4.53;;;3.42;;
17175;SDS011;8703;48.996;9.594;2023-09-18T01:41:53;5.38;;;3.58;;
17175;SDS011;8703;48.996;9.594;2023-09-18T01:44:21;5.30;;;3.70;;
17175;SDS011;8703;48.996;9.594;2023-09-18T01:46:48;5.85;;;3.50;;
17175;SDS011;8703;48.996;9.594;2023-09-18T01:49:16;4.65;;;3.75;;
17175;SDS011;8703;48.996;9.594;2023-09-18T01:51:52;5.20;;;4.03;;
17175;SDS011;8703;48.996;9.594;2023-09-18T01:54:19;3.95;;;3.50;;
17175;SDS011;8703;48.996;9.594;2023-09-18T01:56:46;4.72;;;3.30;;
17175;SDS011;8703;48.996;9.594;2023-09-18T01:59:15;4.90;;;3.83;;
17175;SDS011;8703;48.996;9.594;2023-09-18T02:01:43;5.57;;;3.80;;
17175;SDS011;8703;48.996;9.594;2023-09-18T02:04:10;5.72;;;3.38;;
17175;SDS011;8703;48.996;9.594;2023-09-18T02:06:37;4.50;;;3.60;;
17175;SDS011;8703;48.996;9.594;2023-09-18T02:09:05;5.53;;;3.40;;
17175;SDS011;8703;48.996;9.594;2023-09-18T02:11:33;4.20;;;3.55;;
17175;SDS011;8703;48.996;9.594;2023-09-18T02:14:02;5.90;;;4.00;;
17175;SDS011;8703;48.996;9.594;2023-09-18T02:16:31;5.32;;;3.90;;
17175;SDS011;8703;48.996;9.594;2023-09-18T02:18:59;4.55;;;3.70;;
17175;SDS011;8703;48.996;9.594;2023-09-18T02:21:26;4.70;;;4.18;;
17175;SDS011;8703;48.996;9.594;2023-09-18T02:23:54;5.80;;;4.13;;
17175;SDS011;8703;48.996;9.594;2023-09-18T02:26:21;4.97;;;3.67;;
17175;SDS011;8703;48.996;9.594;2023-09-18T02:28:51;7.82;;;4.15;;
17175;SDS011;8703;48.996;9.594;2023-09-18T02:31:18;6.13;;;4.07;;
17175;SDS011;8703;48.996;9.594;2023-09-18T02:33:47;4.63;;;4.22;;
17175;SDS011;8703;48.996;9.594;2023-09-18T02:36:15;5.13;;;3.70;;
17175;SDS011;8703;48.996;9.594;2023-09-18T02:38:42;4.15;;;3.38;;
17175;SDS011;8703;48.996;9.594;2023-09-18T02:41:10;6.78;;;3.83;;
17175;SDS011;8703;48.996;9.594;2023-09-18T02:43:37;5.30;;;3.83;;
17175;SDS011;8703;48.996;9.594;2023-09-18T02:46:04;5.13;;;3.97;;
17175;SDS011;8703;48.996;9.594;2023-09-18T02:48:32;6.30;;;3.75;;
17175;SDS011;8703;48.996;9.594;2023-09-18T02:51:01;4.78;;;3.60;;
17175;SDS011;8703;48.996;9.594;2023-09-18T02:53:28;4.03;;;3.60;;
17175;SDS011;8703;48.996;9.594;2023-09-18T02:55:56;6.03;;;3.78;;
17175;SDS011;8703;48.996;9.594;2023-09-18T02:58:25;6.18;;;4.20;;
17175;SDS011;8703;48.996;9.594;2023-09-18T03:00:54;5.25;;;4.25;;
17175;SDS011;8703;48.996;9.594;2023-09-18T03:03:22;4.35;;;3.78;;
17175;SDS011;8703;48.996;9.594;2023-09-18T03:05:51;5.05;;;3.78;;
17175;SDS011;8703;48.996;9.594;2023-09-18T03:08:20;5.13;;;3.78;;
17175;SDS011;8703;48.996;9.594;2023-09-18T03:10:47;6.82;;;3.97;;
17175;SDS011;8703;48.996;9.594;2023-09-18T03:13:15;5.13;;;4.18;;
17175;SDS011;8703;48.996;9.594;2023-09-18T03:15:45;6.32;;;4.25;;
17175;SDS011;8703;48.996;9.594;2023-09-18T03:18:13;5.05;;;3.90;;
17175;SDS011;8703;48.996;9.594;2023-09-18T03:20:40;5.13;;;4.10;;
17175;SDS011;8703;48.996;9.594;2023-09-18T03:23:07;9.90;;;4.88;;
17175;SDS011;8703;48.996;9.594;2023-09-18T03:25:36;4.88;;;4.20;;
17175;SDS011;8703;48.996;9.594;2023-09-18T03:28:04;6.55;;;4.38;;
17175;SDS011;8703;48.996;9.594;2023-09-18T03:30:32;5.95;;;4.28;;
17175;SDS011;8703;48.996;9.594;2023-09-18T03:32:59;5.38;;;3.83;;
17175;SDS011;8703;48.996;9.594;2023-09-18T03:35:28;4.38;;;3.97;;
17175;SDS011;8703;48.996;9.594;2023-09-18T03:37:57;5.60;;;4.20;;
17175;SDS011;8703;48.996;9.594;2023-09-18T03:40:24;6.85;;;4.50;;
17175;SDS011;8703;48.996;9.594;2023-09-18T03:42:53;5.30;;;3.97;;
17175;SDS011;8703;48.996;9.594;2023-09-18T03:45:20;5.43;;;4.20;;
17175;SDS011;8703;48.996;9.594;2023-09-18T03:47:48;6.57;;;4.38;;
17175;SDS011;8703;48.996;9.594;2023-09-18T03:50:16;6.63;;;4.63;;
17175;SDS011;8703;48.996;9.594;2023-09-18T03:52:43;6.13;;;4.07;;
17175;SDS011;8703;48.996;9.594;2023-09-18T03:55:11;7.07;;;4.18;;
17175;SDS011;8703;48.996;9.594;2023-09-18T03:57:38;7.60;;;4.82;;
17175;SDS011;8703;48.996;9.594;2023-09-18T04:00:09;6.28;;;4.43;;
17175;SDS011;8703;48.996;9.594;2023-09-18T04:02:37;5.43;;;4.22;;
17175;SDS011;8703;48.996;9.594;2023-09-18T04:05:05;6.80;;;4.53;;
17175;SDS011;8703;48.996;9.594;2023-09-18T04:07:33;7.40;;;4.50;;
17175;SDS011;8703;48.996;9.594;2023-09-18T04:10:00;5.45;;;4.28;;
17175;SDS011;8703;48.996;9.594;2023-09-18T04:12:28;6.00;;;4.10;;
17175;SDS011;8703;48.996;9.594;2023-09-18T04:14:55;6.10;;;4.45;;
17175;SDS011;8703;48.996;9.594;2023-09-18T04:17:24;7.40;;;4.10;;
17175;SDS011;8703;48.996;9.594;2023-09-18T04:19:51;4.90;;;4.15;;
17175;SDS011;8703;48.996;9.594;2023-09-18T04:22:19;6.60;;;4.38;;
17175;SDS011;8703;48.996;9.594;2023-09-18T04:24:49;5.22;;;3.80;;
17175;SDS011;8703;48.996;9.594;2023-09-18T04:27:16;5.45;;;4.38;;
17175;SDS011;8703;48.996;9.594;2023-09-18T04:29:43;10.02;;;4.30;;
17175;SDS011;8703;48.996;9.594;2023-09-18T04:32:11;7.20;;;3.88;;
17175;SDS011;8703;48.996;9.594;2023-09-18T04:34:39;4.55;;;3.50;;
17175;SDS011;8703;48.996;9.594;2023-09-18T04:37:07;5.10;;;4.00;;
17175;SDS011;8703;48.996;9.594;2023-09-18T04:39:34;4.75;;;4.10;;
17175;SDS011;8703;48.996;9.594;2023-09-18T04:42:02;6.22;;;3.85;;
17175;SDS011;8703;48.996;9.594;2023-09-18T04:44:30;5.00;;;3.88;;
17175;SDS011;8703;48.996;9.594;2023-09-18T04:46:57;6.80;;;4.32;;
17175;SDS011;8703;48.996;9.594;2023-09-18T04:49:25;5.05;;;4.53;;
17175;SDS011;8703;48.996;9.594;2023-09-18T04:51:55;4.57;;;3.97;;
17175;SDS011;8703;48.996;9.594;2023-09-18T04:54:23;7.88;;;4.30;;
17175;SDS011;8703;48.996;9.594;2023-09-18T04:56:50;7.35;;;4.50;;
17175;SDS011;8703;48.996;9.594;2023-09-18T04:59:17;6.75;;;4.50;;
17175;SDS011;8703;48.996;9.594;2023-09-18T05:01:45;6.45;;;4.28;;
17175;SDS011;8703;48.996;9.594;2023-09-18T05:04:12;6.45;;;3.58;;
17175;SDS011;8703;48.996;9.594;2023-09-18T05:06:40;6.28;;;4.03;;
17175;SDS011;8703;48.996;9.594;2023-09-18T05:09:09;6.65;;;4.30;;
17175;SDS011;8703;48.996;9.594;2023-09-18T05:11:36;5.50;;;4.20;;
17175;SDS011;8703;48.996;9.594;2023-09-18T05:14:06;5.80;;;4.18;;
17175;SDS011;8703;48.996;9.594;2023-09-18T05:16:34;7.25;;;4.32;;
17175;SDS011;8703;48.996;9.594;2023-09-18T05:19:01;5.20;;;3.80;;
17175;SDS011;8703;48.996;9.594;2023-09-18T05:21:29;6.57;;;4.50;;
17175;SDS011;8703;48.996;9.594;2023-09-18T05:23:56;6.38;;;4.10;;
17175;SDS011;8703;48.996;9.594;2023-09-18T05:26:25;6.18;;;4.60;;
17175;SDS011;8703;48.996;9.594;2023-09-18T05:28:54;8.68;;;4.40;;
17175;SDS011;8703;48.996;9.594;2023-09-18T05:31:21;5.68;;;4.00;;
17175;SDS011;8703;48.996;9.594;2023-09-18T05:33:49;7.18;;;4.78;;
17175;SDS011;8703;48.996;9.594;2023-09-18T05:36:16;6.78;;;4.07;;
17175;SDS011;8703;48.996;9.594;2023-09-18T05:38:44;8.93;;;5.28;;
17175;SDS011;8703;48.996;9.594;2023-09-18T05:41:11;8.82;;;5.38;;
17175;SDS011;8703;48.996;9.594;2023-09-18T05:43:40;7.47;;;4.95;;
17175;SDS011;8703;48.996;9.594;2023-09-18T05:46:07;6.80;;;5.10;;
17175;SDS011;8703;48.996;9.594;2023-09-18T05:48:34;7.38;;;5.43;;
17175;SDS011;8703;48.996;9.594;2023-09-18T05:51:02;5.85;;;4.43;;
17175;SDS011;8703;48.996;9.594;2023-09-18T05:53:29;9.38;;;4.75;;
17175;SDS011;8703;48.996;9.594;2023-09-18T05:55:59;5.90;;;4.03;;
17175;SDS011;8703;48.996;9.594;2023-09-18T05:58:28;7.60;;;4.50;;
17175;SDS011;8703;48.996;9.594;2023-09-18T06:00:58;7.40;;;4.15;;
17175;SDS011;8703;48.996;9.594;2023-09-18T06:03:25;8.07;;;4.20;;
17175;SDS011;8703;48.996;9.594;2023-09-18T06:05:55;7.10;;;4.10;;
17175;SDS011;8703;48.996;9.594;2023-09-18T06:08:22;6.53;;;4.15;;
17175;SDS011;8703;48.996;9.594;2023-09-18T06:10:51;5.38;;;4.40;;
17175;SDS011;8703;48.996;9.594;2023-09-18T06:13:19;8.48;;;5.05;;
17175;SDS011;8703;48.996;9.594;2023-09-18T06:15:47;6.57;;;5.35;;
17175;SDS011;8703;48.996;9.594;2023-09-18T06:18:17;5.97;;;4.70;;
17175;SDS011;8703;48.996;9.594;2023-09-18T06:20:45;9.80;;;4.80;;
17175;SDS011;8703;48.996;9.594;2023-09-18T06:23:12;8.43;;;4.65;;
17175;SDS011;8703;48.996;9.594;2023-09-18T06:25:40;8.02;;;4.38;;
17175;SDS011;8703;48.996;9.594;2023-09-18T06:28:07;7.70;;;4.88;;
17175;SDS011;8703;48.996;9.594;2023-09-18T06:30:35;6.72;;;4.20;;
17175;SDS011;8703;48.996;9.594;2023-09-18T06:33:02;6.63;;;4.15;;
17175;SDS011;8703;48.996;9.594;2023-09-18T06:35:31;6.93;;;3.78;;
17175;SDS011;8703;48.996;9.594;2023-09-18T06:37:58;8.32;;;5.25;;
17175;SDS011;8703;48.996;9.594;2023-09-18T06:40:26;5.97;;;3.65;;
17175;SDS011;8703;48.996;9.594;2023-09-18T06:42:57;5.40;;;3.63;;
17175;SDS011;8703;48.996;9.594;2023-09-18T06:45:26;6.78;;;3.90;;
17175;SDS011;8703;48.996;9.594;2023-09-18T06:47:53;6.07;;;4.13;;
17175;SDS011;8703;48.996;9.594;2023-09-18T06:50:21;5.95;;;3.78;;
17175;SDS011;8703;48.996;9.594;2023-09-18T06:52:49;5.68;;;3.90;;
17175;SDS011;8703;48.996;9.594;2023-09-18T06:55:17;7.60;;;4.32;;
17175;SDS011;8703;48.996;9.594;2023-09-18T06:57:44;10.10;;;4.45;;
17175;SDS011;8703;48.996;9.594;2023-09-18T07:00:13;5.93;;;4.13;;
17175;SDS011;8703;48.996;9.594;2023-09-18T07:02:43;6.22;;;4.20;;
17175;SDS011;8703;48.996;9.594;2023-09-18T07:05:10;5.65;;;4.18;;
17175;SDS011;8703;48.996;9.594;2023-09-18T07:07:38;6.47;;;4.10;;
17175;SDS011;8703;48.996;9.594;2023-09-18T07:10:07;6.20;;;4.43;;
17175;SDS011;8703;48.996;9.594;2023-09-18T07:12:35;5.47;;;3.95;;
17175;SDS011;8703;48.996;9.594;2023-09-18T07:15:02;5.07;;;4.38;;
17175;SDS011;8703;48.996;9.594;2023-09-18T07:17:31;7.45;;;4.40;;
17175;SDS011;8703;48.996;9.594;2023-09-18T07:20:00;7.38;;;4.70;;
17175;SDS011;8703;48.996;9.594;2023-09-18T07:22:38;6.82;;;3.92;;
17175;SDS011;8703;48.996;9.594;2023-09-18T07:25:07;8.02;;;4.50;;
17175;SDS011;8703;48.996;9.594;2023-09-18T07:27:35;6.97;;;4.32;;
17175;SDS011;8703;48.996;9.594;2023-09-18T07:30:04;6.03;;;3.90;;
17175;SDS011;8703;48.996;9.594;2023-09-18T07:32:32;6.50;;;4.40;;
17175;SDS011;8703;48.996;9.594;2023-09-18T07:34:59;8.20;;;3.70;;
17175;SDS011;8703;48.996;9.594;2023-09-18T07:37:27;7.28;;;4.00;;
17175;SDS011;8703;48.996;9.594;2023-09-18T07:39:54;6.78;;;2.60;;
17175;SDS011;8703;48.996;9.594;2023-09-18T07:42:25;6.55;;;2.80;;
17175;SDS011;8703;48.996;9.594;2023-09-18T07:44:52;5.50;;;2.97;;
17175;SDS011;8703;48.996;9.594;2023-09-18T07:47:20;5.40;;;2.60;;
17175;SDS011;8703;48.996;9.594;2023-09-18T07:49:47;5.80;;;2.72;;
17175;SDS011;8703;48.996;9.594;2023-09-18T07:52:15;6.63;;;2.80;;
17175;SDS011;8703;48.996;9.594;2023-09-18T07:54:42;4.50;;;2.08;;
17175;SDS011;8703;48.996;9.594;2023-09-18T07:57:10;5.30;;;2.35;;
17175;SDS011;8703;48.996;9.594;2023-09-18T07:59:39;6.68;;;2.72;;
17175;SDS011;8703;48.996;9.594;2023-09-18T08:02:07;6.95;;;2.40;;
17175;SDS011;8703;48.996;9.594;2023-09-18T08:04:35;6.65;;;2.20;;
17175;SDS011;8703;48.996;9.594;2023-09-18T08:07:02;5.00;;;2.33;;
17175;SDS011;8703;48.996;9.594;2023-09-18T08:09:30;7.93;;;2.38;;
17175;SDS011;8703;48.996;9.594;2023-09-18T08:12:01;4.97;;;2.10;;
17175;SDS011;8703;48.996;9.594;2023-09-18T08:14:28;5.28;;;2.00;;
17175;SDS011;8703;48.996;9.594;2023-09-18T08:16:57;4.50;;;2.20;;
17175;SDS011;8703;48.996;9.594;2023-09-18T08:19:25;6.25;;;2.10;;
17175;SDS011;8703;48.996;9.594;2023-09-18T08:21:52;4.72;;;2.17;;
17175;SDS011;8703;48.996;9.594;2023-09-18T08:24:21;6.03;;;1.90;;
17175;SDS011;8703;48.996;9.594;2023-09-18T08:26:48;7.50;;;2.28;;
17175;SDS011;8703;48.996;9.594;2023-09-18T08:29:16;5.90;;;1.95;;
17175;SDS011;8703;48.996;9.594;2023-09-18T08:31:43;6.65;;;2.25;;
17175;SDS011;8703;48.996;9.594;2023-09-18T08:34:12;6.35;;;2.10;;
17175;SDS011;8703;48.996;9.594;2023-09-18T08:36:40;5.07;;;1.90;;
17175;SDS011;8703;48.996;9.594;2023-09-18T08:39:07;5.57;;;1.70;;
17175;SDS011;8703;48.996;9.594;2023-09-18T08:41:36;3.67;;;1.83;;
17175;SDS011;8703;48.996;9.594;2023-09-18T08:44:08;5.65;;;1.75;;
17175;SDS011;8703;48.996;9.594;2023-09-18T08:46:36;6.28;;;1.70;;
17175;SDS011;8703;48.996;9.594;2023-09-18T08:49:04;7.07;;;1.90;;
17175;SDS011;8703;48.996;9.594;2023-09-18T08:51:33;5.93;;;1.63;;
17175;SDS011;8703;48.996;9.594;2023-09-18T08:54:01;5.00;;;1.80;;
17175;SDS011;8703;48.996;9.594;2023-09-18T08:56:30;5.22;;;1.40;;
17175;SDS011;8703;48.996;9.594;2023-09-18T08:58:59;3.75;;;1.48;;
17175;SDS011;8703;48.996;9.594;2023-09-18T09:01:26;4.95;;;1.65;;
17175;SDS011;8703;48.996;9.594;2023-09-18T09:03:53;3.88;;;1.60;;
17175;SDS011;8703;48.996;9.594;2023-09-18T09:06:21;2.55;;;1.30;;
17175;SDS011;8703;48.996;9.594;2023-09-18T09:08:50;5.10;;;1.20;;
17175;SDS011;8703;48.996;9.594;2023-09-18T09:11:17;3.60;;;1.20;;
17175;SDS011;8703;48.996;9.594;2023-09-18T09:13:45;3.33;;;1.20;;
17175;SDS011;8703;48.996;9.594;2023-09-18T09:16:13;3.53;;;1.35;;
17175;SDS011;8703;48.996;9.594;2023-09-18T09:18:47;5.47;;;1.65;;
17175;SDS011;8703;48.996;9.594;2023-09-18T09:21:15;3.72;;;1.20;;
17175;SDS011;8703;48.996;9.594;2023-09-18T09:23:46;4.95;;;1.23;;
17175;SDS011;8703;48.996;9.594;2023-09-18T09:26:19;2.75;;;1.08;;
17175;SDS011;8703;48.996;9.594;2023-09-18T09:28:47;3.38;;;1.00;;
17175;SDS011;8703;48.996;9.594;2023-09-18T09:31:24;4.90;;;1.35;;
17175;SDS011;8703;48.996;9.594;2023-09-18T09:33:52;2.90;;;0.90;;
17175;SDS011;8703;48.996;9.594;2023-09-18T09:36:20;1.88;;;1.00;;
17175;SDS011;8703;48.996;9.594;2023-09-18T09:38:49;3.55;;;1.20;;
17175;SDS011;8703;48.996;9.594;2023-09-18T09:41:23;2.33;;;0.90;;
17175;SDS011;8703;48.996;9.594;2023-09-18T09:43:53;4.07;;;1.00;;
17175;SDS011;8703;48.996;9.594;2023-09-18T09:46:21;2.65;;;1.15;;
17175;SDS011;8703;48.996;9.594;2023-09-18T09:48:59;3.53;;;1.10;;
17175;SDS011;8703;48.996;9.594;2023-09-18T09:51:27;2.92;;;1.00;;
17175;SDS011;8703;48.996;9.594;2023-09-18T09:53:55;2.00;;;0.88;;
17175;SDS011;8703;48.996;9.594;2023-09-18T09:59:08;3.00;;;1.10;;
17175;SDS011;8703;48.996;9.594;2023-09-18T10:01:37;3.05;;;1.00;;
17175;SDS011;8703;48.996;9.594;2023-09-18T10:04:05;2.38;;;1.00;;
17175;SDS011;8703;48.996;9.594;2023-09-18T10:06:36;1.73;;;1.00;;
17175;SDS011;8703;48.996;9.594;2023-09-18T10:09:03;2.10;;;0.90;;
17175;SDS011;8703;48.996;9.594;2023-09-18T10:11:32;2.53;;;1.25;;
17175;SDS011;8703;48.996;9.594;2023-09-18T10:14:04;2.08;;;1.00;;
17175;SDS011;8703;48.996;9.594;2023-09-18T10:16:36;2.80;;;1.17;;
17175;SDS011;8703;48.996;9.594;2023-09-18T10:19:05;1.95;;;0.90;;
17175;SDS011;8703;48.996;9.594;2023-09-18T10:21:38;2.08;;;0.93;;
17175;SDS011;8703;48.996;9.594;2023-09-18T10:24:10;3.60;;;1.33;;
17175;SDS011;8703;48.996;9.594;2023-09-18T10:26:44;2.78;;;1.10;;
17175;SDS011;8703;48.996;9.594;2023-09-18T10:29:16;2.22;;;1.05;;
17175;SDS011;8703;48.996;9.594;2023-09-18T10:31:44;4.22;;;1.02;;
17175;SDS011;8703;48.996;9.594;2023-09-18T10:34:12;3.35;;;1.05;;
17175;SDS011;8703;48.996;9.594;2023-09-18T10:36:41;2.50;;;1.00;;
17175;SDS011;8703;48.996;9.594;2023-09-18T10:39:09;2.95;;;1.20;;
17175;SDS011;8703;48.996;9.594;2023-09-18T10:41:38;2.65;;;1.13;;
17175;SDS011;8703;48.996;9.594;2023-09-18T10:44:06;2.08;;;0.90;;
17175;SDS011;8703;48.996;9.594;2023-09-18T10:46:36;3.00;;;1.00;;
17175;SDS011;8703;48.996;9.594;2023-09-18T10:49:03;2.22;;;0.85;;
17175;SDS011;8703;48.996;9.594;2023-09-18T10:51:31;4.63;;;1.20;;
17175;SDS011;8703;48.996;9.594;2023-09-18T10:53:59;2.58;;;1.20;;
17175;SDS011;8703;48.996;9.594;2023-09-18T10:56:28;2.25;;;1.00;;
17175;SDS011;8703;48.996;9.594;2023-09-18T10:58:57;2.58;;;1.00;;
17175;SDS011;8703;48.996;9.594;2023-09-18T11:01:27;2.10;;;1.02;;
17175;SDS011;8703;48.996;9.594;2023-09-18T11:03:59;2.05;;;1.08;;
17175;SDS011;8703;48.996;9.594;2023-09-18T11:06:27;1.17;;;0.88;;
17175;SDS011;8703;48.996;9.594;2023-09-18T11:09:02;2.22;;;1.15;;
17175;SDS011;8703;48.996;9.594;2023-09-18T11:11:35;1.40;;;0.93;;
17175;SDS011;8703;48.996;9.594;2023-09-18T11:14:02;2.70;;;1.00;;
17175;SDS011;8703;48.996;9.594;2023-09-18T11:16:38;1.80;;;0.82;;
17175;SDS011;8703;48.996;9.594;2023-09-18T11:19:09;2.03;;;1.10;;
17175;SDS011;8703;48.996;9.594;2023-09-18T11:21:38;5.38;;;1.30;;
17175;SDS011;8703;48.996;9.594;2023-09-18T11:24:06;1.88;;;0.90;;
17175;SDS011;8703;48.996;9.594;2023-09-18T11:26:39;2.20;;;1.10;;
17175;SDS011;8703;48.996;9.594;2023-09-18T11:29:08;1.98;;;0.90;;
17175;SDS011;8703;48.996;9.594;2023-09-18T11:31:44;4.40;;;1.27;;
17175;SDS011;8703;48.996;9.594;2023-09-18T11:34:19;3.08;;;1.00;;
17175;SDS011;8703;48.996;9.594;2023-09-18T11:36:48;2.80;;;1.08;;
17175;SDS011;8703;48.996;9.594;2023-09-18T11:42:06;4.70;;;1.20;;
17175;SDS011;8703;48.996;9.594;2023-09-18T11:44:35;2.70;;;1.00;;
17175;SDS011;8703;48.996;9.594;2023-09-18T11:47:06;3.20;;;0.80;;
17175;SDS011;8703;48.996;9.594;2023-09-18T11:49:39;4.30;;;1.20;;
17175;SDS011;8703;48.996;9.594;2023-09-18T11:52:08;1.60;;;1.00;;
17175;SDS011;8703;48.996;9.594;2023-09-18T11:54:39;2.75;;;0.90;;
17175;SDS011;8703;48.996;9.594;2023-09-18T11:57:07;2.00;;;1.10;;
17175;SDS011;8703;48.996;9.594;2023-09-18T11:59:36;2.28;;;1.10;;
17175;SDS011;8703;48.996;9.594;2023-09-18T12:02:06;2.08;;;1.00;;
17175;SDS011;8703;48.996;9.594;2023-09-18T12:04:33;2.05;;;1.20;;
17175;SDS011;8703;48.996;9.594;2023-09-18T12:07:02;2.33;;;1.00;;
17175;SDS011;8703;48.996;9.594;2023-09-18T12:09:30;3.78;;;1.00;;
17175;SDS011;8703;48.996;9.594;2023-09-18T12:11:58;1.40;;;1.13;;
17175;SDS011;8703;48.996;9.594;2023-09-18T12:14:29;5.13;;;1.10;;
17175;SDS011;8703;48.996;9.594;2023-09-18T12:16:58;2.55;;;1.08;;
17175;SDS011;8703;48.996;9.594;2023-09-18T12:19:28;4.05;;;1.02;;
17175;SDS011;8703;48.996;9.594;2023-09-18T12:21:55;2.10;;;0.90;;
17175;SDS011;8703;48.996;9.594;2023-09-18T12:24:25;2.25;;;0.80;;
17175;SDS011;8703;48.996;9.594;2023-09-18T12:26:52;2.55;;;0.90;;
17175;SDS011;8703;48.996;9.594;2023-09-18T12:29:20;1.98;;;0.80;;
17175;SDS011;8703;48.996;9.594;2023-09-18T12:31:48;1.20;;;0.80;;
17175;SDS011;8703;48.996;9.594;2023-09-18T12:34:17;3.25;;;1.10;;
17175;SDS011;8703;48.996;9.594;2023-09-18T12:36:46;1.95;;;0.90;;
17175;SDS011;8703;48.996;9.594;2023-09-18T12:39:14;1.25;;;0.60;;
17175;SDS011;8703;48.996;9.594;2023-09-18T12:41:45;2.58;;;0.90;;
17175;SDS011;8703;48.996;9.594;2023-09-18T12:44:13;1.70;;;0.68;;
17175;SDS011;8703;48.996;9.594;2023-09-18T12:46:41;1.63;;;1.00;;
17175;SDS011;8703;48.996;9.594;2023-09-18T12:49:16;1.63;;;1.10;;
17175;SDS011;8703;48.996;9.594;2023-09-18T12:51:44;2.58;;;0.98;;
17175;SDS011;8703;48.996;9.594;2023-09-18T12:54:19;1.60;;;0.93;;
17175;SDS011;8703;48.996;9.594;2023-09-18T12:56:48;1.75;;;0.80;;
17175;SDS011;8703;48.996;9.594;2023-09-18T12:59:15;1.73;;;0.90;;
17175;SDS011;8703;48.996;9.594;2023-09-18T13:01:45;1.90;;;0.88;;
17175;SDS011;8703;48.996;9.594;2023-09-18T13:04:13;1.48;;;1.00;;
17175;SDS011;8703;48.996;9.594;2023-09-18T13:06:41;2.53;;;0.90;;
17175;SDS011;8703;48.996;9.594;2023-09-18T13:09:15;2.42;;;0.80;;
17175;SDS011;8703;48.996;9.594;2023-09-18T13:11:53;1.65;;;0.80;;
17175;SDS011;8703;48.996;9.594;2023-09-18T13:14:21;1.35;;;1.10;;
17175;SDS011;8703;48.996;9.594;2023-09-18T13:16:49;2.42;;;1.13;;
17175;SDS011;8703;48.996;9.594;2023-09-18T13:19:16;2.65;;;0.90;;
17175;SDS011;8703;48.996;9.594;2023-09-18T13:21:47;2.28;;;0.80;;
17175;SDS011;8703;48.996;9.594;2023-09-18T13:24:25;1.80;;;0.80;;
17175;SDS011;8703;48.996;9.594;2023-09-18T13:26:55;2.25;;;0.85;;
17175;SDS011;8703;48.996;9.594;2023-09-18T13:29:24;1.52;;;0.80;;
17175;SDS011;8703;48.996;9.594;2023-09-18T13:31:51;1.63;;;0.82;;
17175;SDS011;8703;48.996;9.594;2023-09-18T13:34:19;1.35;;;0.85;;
17175;SDS011;8703;48.996;9.594;2023-09-18T13:36:47;1.73;;;1.00;;
17175;SDS011;8703;48.996;9.594;2023-09-18T13:39:14;1.38;;;0.95;;
17175;SDS011;8703;48.996;9.594;2023-09-18T13:41:43;1.40;;;0.82;;
17175;SDS011;8703;48.996;9.594;2023-09-18T13:44:12;2.20;;;1.00;;
17175;SDS011;8703;48.996;9.594;2023-09-18T13:46:39;1.90;;;0.90;;
17175;SDS011;8703;48.996;9.594;2023-09-18T13:49:07;2.33;;;1.08;;
17175;SDS011;8703;48.996;9.594;2023-09-18T13:51:34;2.20;;;1.10;;
17175;SDS011;8703;48.996;9.594;2023-09-18T13:54:02;1.50;;;1.00;;
17175;SDS011;8703;48.996;9.594;2023-09-18T13:56:30;2.30;;;1.08;;
17175;SDS011;8703;48.996;9.594;2023-09-18T13:58:57;1.50;;;0.80;;
17175;SDS011;8703;48.996;9.594;2023-09-18T14:01:26;1.90;;;0.85;;
17175;SDS011;8703;48.996;9.594;2023-09-18T14:03:54;2.92;;;1.02;;
17175;SDS011;8703;48.996;9.594;2023-09-18T14:06:21;2.05;;;0.98;;
17175;SDS011;8703;48.996;9.594;2023-09-18T14:08:49;2.60;;;1.00;;
17175;SDS011;8703;48.996;9.594;2023-09-18T14:11:17;1.42;;;0.80;;
17175;SDS011;8703;48.996;9.594;2023-09-18T14:13:44;2.53;;;1.02;;
17175;SDS011;8703;48.996;9.594;2023-09-18T14:16:12;4.22;;;0.90;;
17175;SDS011;8703;48.996;9.594;2023-09-18T14:18:41;3.50;;;1.00;;
17175;SDS011;8703;48.996;9.594;2023-09-18T14:21:09;1.77;;;0.95;;
17175;SDS011;8703;48.996;9.594;2023-09-18T14:23:36;2.92;;;1.05;;
17175;SDS011;8703;48.996;9.594;2023-09-18T14:26:03;2.47;;;0.90;;
17175;SDS011;8703;48.996;9.594;2023-09-18T14:28:31;3.35;;;1.08;;
17175;SDS011;8703;48.996;9.594;2023-09-18T14:30:59;2.40;;;1.02;;
17175;SDS011;8703;48.996;9.594;2023-09-18T14:33:28;2.22;;;1.00;;
17175;SDS011;8703;48.996;9.594;2023-09-18T14:35:57;2.00;;;1.02;;
17175;SDS011;8703;48.996;9.594;2023-09-18T14:38:24;2.63;;;1.05;;
17175;SDS011;8703;48.996;9.594;2023-09-18T14:40:52;3.25;;;1.02;;
17175;SDS011;8703;48.996;9.594;2023-09-18T14:43:25;3.30;;;1.20;;
17175;SDS011;8703;48.996;9.594;2023-09-18T14:45:52;4.03;;;1.80;;
17175;SDS011;8703;48.996;9.594;2023-09-18T14:48:21;2.65;;;1.48;;
17175;SDS011;8703;48.996;9.594;2023-09-18T14:50:52;3.28;;;1.40;;
17175;SDS011;8703;48.996;9.594;2023-09-18T14:53:21;4.70;;;1.95;;
17175;SDS011;8703;48.996;9.594;2023-09-18T14:55:49;2.58;;;1.20;;
17175;SDS011;8703;48.996;9.594;2023-09-18T14:58:16;2.65;;;1.20;;
17175;SDS011;8703;48.996;9.594;2023-09-18T15:00:47;3.45;;;1.60;;
17175;SDS011;8703;48.996;9.594;2023-09-18T15:03:14;3.22;;;1.10;;
17175;SDS011;8703;48.996;9.594;2023-09-18T15:05:41;3.30;;;1.20;;
17175;SDS011;8703;48.996;9.594;2023-09-18T15:08:09;1.95;;;1.10;;
17175;SDS011;8703;48.996;9.594;2023-09-18T15:10:38;2.55;;;1.20;;
17175;SDS011;8703;48.996;9.594;2023-09-18T15:13:05;3.00;;;1.00;;
17175;SDS011;8703;48.996;9.594;2023-09-18T15:15:33;2.47;;;1.00;;